WZZ40TP LIRF-LHBP
Flight info
| Callsign | WZZ40TP |
|---|---|
| Flight time | 1h 19m |
| Altitude | 34000 |
| Route | OKUNO DCT ATRUP DCT SAL/N0432F330 DCT KOPRY DCT ULZAK |
| Aircraft | A21N/M-SDE1E2E3FGIJ1J4RWXY/LB1 |
Departure
| Time | 2026-05-04 13:25 |
|---|---|
| Airport | Rome–Fiumicino Leonardo da Vinci International Airport (LIRF) |
Arrival
| Time | 2026-05-04 14:44 |
|---|---|
| Airport | Budapest Liszt Ferenc International Airport (LHBP) |
| Time | Latitude | Longitude | Altitude | Speed | Heading |
|---|---|---|---|---|---|
| 2026-05-04 12:45 | 41.79748 | 12.25925 | 19 ft | 0 kts | 160° |
| 2026-05-04 13:14 | 41.79749 | 12.25925 | 19 ft | 2 kts | 160° |
| 2026-05-04 13:14 | 41.79771 | 12.25916 | 19 ft | 4 kts | 184° |
| 2026-05-04 13:14 | 41.79791 | 12.25926 | 21 ft | 4 kts | 219° |
| 2026-05-04 13:15 | 41.79803 | 12.25951 | 20 ft | 4 kts | 275° |
| 2026-05-04 13:15 | 41.79796 | 12.25980 | 22 ft | 2 kts | 295° |
| 2026-05-04 13:15 | 41.79806 | 12.25953 | 20 ft | 4 kts | 295° |
| 2026-05-04 13:15 | 41.79817 | 12.25920 | 20 ft | 4 kts | 295° |
| 2026-05-04 13:16 | 41.79820 | 12.25913 | 21 ft | 0 kts | 295° |
| 2026-05-04 13:19 | 41.79823 | 12.25902 | 20 ft | 3 kts | 281° |
| 2026-05-04 13:19 | 41.79837 | 12.25867 | 19 ft | 6 kts | 300° |
| 2026-05-04 13:20 | 41.79875 | 12.25825 | 19 ft | 9 kts | 360° |
| 2026-05-04 13:20 | 41.79938 | 12.25868 | 19 ft | 11 kts | 25° |
| 2026-05-04 13:20 | 41.80012 | 12.25913 | 19 ft | 12 kts | 23° |
| 2026-05-04 13:20 | 41.80096 | 12.25961 | 19 ft | 14 kts | 23° |
| 2026-05-04 13:21 | 41.80188 | 12.26016 | 19 ft | 15 kts | 26° |
| 2026-05-04 13:21 | 41.80287 | 12.26080 | 19 ft | 16 kts | 25° |
| 2026-05-04 13:21 | 41.80395 | 12.26147 | 21 ft | 18 kts | 25° |
| 2026-05-04 13:21 | 41.80498 | 12.26187 | 22 ft | 15 kts | 22° |
| 2026-05-04 13:22 | 41.80550 | 12.26317 | 23 ft | 17 kts | 69° |
| 2026-05-04 13:22 | 41.80591 | 12.26465 | 22 ft | 18 kts | 70° |
| 2026-05-04 13:22 | 41.80635 | 12.26625 | 21 ft | 19 kts | 70° |
| 2026-05-04 13:22 | 41.80681 | 12.26792 | 20 ft | 20 kts | 70° |
| 2026-05-04 13:23 | 41.80729 | 12.26967 | 19 ft | 20 kts | 70° |
| 2026-05-04 13:23 | 41.80737 | 12.26997 | 20 ft | 3 kts | 66° |
| 2026-05-04 13:23 | 41.80754 | 12.27029 | 19 ft | 5 kts | 42° |
| 2026-05-04 13:23 | 41.80795 | 12.27043 | 19 ft | 7 kts | 359° |
| 2026-05-04 13:24 | 41.80847 | 12.27024 | 19 ft | 9 kts | 340° |
| 2026-05-04 13:24 | 41.80909 | 12.26994 | 19 ft | 10 kts | 340° |
| 2026-05-04 13:24 | 41.80956 | 12.26937 | 18 ft | 10 kts | 272° |
| 2026-05-04 13:25 | 41.80843 | 12.26502 | 24 ft | 73 kts | 250° |
| 2026-05-04 13:25 | 41.80584 | 12.25568 | 22 ft | 137 kts | 246° |
| 2026-05-04 13:25 | 41.80197 | 12.24185 | 192 ft | 163 kts | 245° |
| 2026-05-04 13:25 | 41.79798 | 12.22796 | 839 ft | 166 kts | 245° |
| 2026-05-04 13:26 | 41.79404 | 12.21300 | 1389 ft | 172 kts | 250° |
| 2026-05-04 13:26 | 41.79254 | 12.19658 | 1867 ft | 188 kts | 264° |
| 2026-05-04 13:26 | 41.79226 | 12.17839 | 2479 ft | 201 kts | 265° |
| 2026-05-04 13:26 | 41.79134 | 12.15913 | 3031 ft | 213 kts | 256° |
| 2026-05-04 13:27 | 41.78462 | 12.14188 | 3665 ft | 210 kts | 224° |
| 2026-05-04 13:27 | 41.77385 | 12.12862 | 4422 ft | 211 kts | 219° |
| 2026-05-04 13:27 | 41.76253 | 12.11594 | 5143 ft | 212 kts | 208° |
| 2026-05-04 13:27 | 41.74849 | 12.11108 | 5814 ft | 212 kts | 178° |
| 2026-05-04 13:28 | 41.73451 | 12.11719 | 6477 ft | 216 kts | 147° |
| 2026-05-04 13:28 | 41.72483 | 12.13268 | 7114 ft | 224 kts | 117° |
| 2026-05-04 13:28 | 41.72178 | 12.15323 | 7641 ft | 238 kts | 96° |
| 2026-05-04 13:28 | 41.72126 | 12.17635 | 7969 ft | 259 kts | 94° |
| 2026-05-04 13:29 | 41.72098 | 12.20131 | 8311 ft | 277 kts | 94° |
| 2026-05-04 13:29 | 41.72081 | 12.22761 | 8907 ft | 287 kts | 89° |
| 2026-05-04 13:29 | 41.72592 | 12.25365 | 9608 ft | 296 kts | 64° |
| 2026-05-04 13:29 | 41.73728 | 12.27692 | 10324 ft | 302 kts | 55° |
| 2026-05-04 13:30 | 41.75027 | 12.30005 | 10693 ft | 320 kts | 54° |
| 2026-05-04 13:30 | 41.76397 | 12.32464 | 11009 ft | 337 kts | 55° |
| 2026-05-04 13:30 | 41.77808 | 12.35051 | 11482 ft | 348 kts | 55° |
| 2026-05-04 13:30 | 41.79232 | 12.37691 | 12144 ft | 352 kts | 54° |
| 2026-05-04 13:31 | 41.80674 | 12.40376 | 12826 ft | 357 kts | 54° |
| 2026-05-04 13:31 | 41.82133 | 12.43102 | 13499 ft | 361 kts | 54° |
| 2026-05-04 13:31 | 41.83602 | 12.45860 | 14126 ft | 367 kts | 54° |
| 2026-05-04 13:31 | 41.85101 | 12.48666 | 14744 ft | 370 kts | 53° |
| 2026-05-04 13:32 | 41.86584 | 12.51447 | 15372 ft | 373 kts | 53° |
| 2026-05-04 13:32 | 41.88095 | 12.54296 | 16014 ft | 376 kts | 53° |
| 2026-05-04 13:32 | 41.89611 | 12.57175 | 16653 ft | 379 kts | 53° |
| 2026-05-04 13:32 | 41.91149 | 12.60083 | 17287 ft | 383 kts | 53° |
| 2026-05-04 13:33 | 41.92697 | 12.63005 | 17916 ft | 386 kts | 53° |
| 2026-05-04 13:33 | 41.94258 | 12.65958 | 18546 ft | 389 kts | 53° |
| 2026-05-04 13:33 | 41.95831 | 12.68938 | 19062 ft | 392 kts | 53° |
| 2026-05-04 13:33 | 41.97410 | 12.71930 | 19576 ft | 394 kts | 53° |
| 2026-05-04 13:34 | 41.99002 | 12.74948 | 20072 ft | 397 kts | 53° |
| 2026-05-04 13:34 | 42.00607 | 12.77997 | 20578 ft | 400 kts | 53° |
| 2026-05-04 13:34 | 42.02199 | 12.81026 | 21059 ft | 403 kts | 53° |
| 2026-05-04 13:34 | 42.03824 | 12.84115 | 21563 ft | 406 kts | 53° |
| 2026-05-04 13:35 | 42.05468 | 12.87237 | 22032 ft | 409 kts | 53° |
| 2026-05-04 13:35 | 42.08769 | 12.93533 | 22991 ft | 414 kts | 53° |
| 2026-05-04 13:35 | 42.10417 | 12.96721 | 23462 ft | 417 kts | 55° |
| 2026-05-04 13:36 | 42.11868 | 13.00142 | 23886 ft | 421 kts | 60° |
| 2026-05-04 13:36 | 42.13239 | 13.03636 | 24271 ft | 423 kts | 60° |
| 2026-05-04 13:36 | 42.14608 | 13.07169 | 24623 ft | 426 kts | 60° |
| 2026-05-04 13:36 | 42.15987 | 13.10726 | 24994 ft | 429 kts | 60° |
| 2026-05-04 13:37 | 42.17374 | 13.14293 | 25360 ft | 431 kts | 60° |
| 2026-05-04 13:37 | 42.18769 | 13.17874 | 25785 ft | 431 kts | 60° |
| 2026-05-04 13:37 | 42.20170 | 13.21469 | 26166 ft | 433 kts | 60° |
| 2026-05-04 13:37 | 42.21099 | 13.23854 | 26403 ft | 434 kts | 60° |
| 2026-05-04 13:38 | 42.22959 | 13.28647 | 26871 ft | 437 kts | 60° |
| 2026-05-04 13:38 | 42.24364 | 13.32290 | 27214 ft | 439 kts | 61° |
| 2026-05-04 13:38 | 42.25778 | 13.35954 | 27558 ft | 441 kts | 61° |
| 2026-05-04 13:38 | 42.27199 | 13.39629 | 27893 ft | 443 kts | 61° |
| 2026-05-04 13:39 | 42.28628 | 13.43327 | 28226 ft | 445 kts | 61° |
| 2026-05-04 13:39 | 42.30061 | 13.47023 | 28546 ft | 447 kts | 61° |
| 2026-05-04 13:39 | 42.31509 | 13.50776 | 28849 ft | 448 kts | 61° |
| 2026-05-04 13:39 | 42.32937 | 13.54513 | 29208 ft | 449 kts | 61° |
| 2026-05-04 13:40 | 42.34547 | 13.58127 | 29527 ft | 448 kts | 51° |
| 2026-05-04 13:40 | 42.36650 | 13.61222 | 29815 ft | 446 kts | 39° |
| 2026-05-04 13:40 | 42.39123 | 13.63760 | 30088 ft | 446 kts | 33° |
| 2026-05-04 13:40 | 42.41678 | 13.66181 | 30315 ft | 448 kts | 33° |
| 2026-05-04 13:41 | 42.44213 | 13.68575 | 30530 ft | 450 kts | 33° |
| 2026-05-04 13:41 | 42.46776 | 13.71025 | 30746 ft | 452 kts | 33° |
| 2026-05-04 13:41 | 42.49344 | 13.73499 | 30978 ft | 453 kts | 33° |
| 2026-05-04 13:42 | 42.54490 | 13.78465 | 31500 ft | 454 kts | 33° |
| 2026-05-04 13:42 | 42.57058 | 13.80941 | 31791 ft | 452 kts | 32° |
| 2026-05-04 13:42 | 42.59622 | 13.83417 | 32091 ft | 452 kts | 33° |
| 2026-05-04 13:42 | 42.62180 | 13.85892 | 32323 ft | 452 kts | 33° |
| 2026-05-04 13:43 | 42.64731 | 13.88366 | 32661 ft | 449 kts | 33° |
| 2026-05-04 13:43 | 42.67266 | 13.90826 | 32991 ft | 447 kts | 33° |
| 2026-05-04 13:43 | 42.69792 | 13.93277 | 33259 ft | 446 kts | 33° |
| 2026-05-04 13:43 | 42.72312 | 13.95726 | 33497 ft | 445 kts | 33° |
| 2026-05-04 13:44 | 42.74830 | 13.98176 | 33732 ft | 445 kts | 33° |
| 2026-05-04 13:44 | 42.77346 | 14.00625 | 33962 ft | 444 kts | 33° |
| 2026-05-04 13:44 | 42.79827 | 14.03044 | 34120 ft | 443 kts | 34° |
| 2026-05-04 13:44 | 42.82334 | 14.05490 | 34125 ft | 443 kts | 33° |
| 2026-05-04 13:45 | 42.87337 | 14.10376 | 34100 ft | 442 kts | 34° |
| 2026-05-04 13:45 | 42.92346 | 14.15274 | 34097 ft | 442 kts | 34° |
| 2026-05-04 13:46 | 42.97343 | 14.20181 | 34094 ft | 443 kts | 33° |
| 2026-05-04 13:46 | 43.02348 | 14.25101 | 34095 ft | 442 kts | 33° |
| 2026-05-04 13:47 | 43.07293 | 14.29980 | 34094 ft | 441 kts | 33° |
| 2026-05-04 13:47 | 43.12279 | 14.34906 | 34105 ft | 441 kts | 33° |
| 2026-05-04 13:48 | 43.17313 | 14.39880 | 34096 ft | 448 kts | 33° |
| 2026-05-04 13:48 | 43.22364 | 14.44901 | 34093 ft | 449 kts | 33° |
| 2026-05-04 13:49 | 43.27428 | 14.49923 | 34097 ft | 449 kts | 33° |
| 2026-05-04 13:49 | 43.32488 | 14.54951 | 34100 ft | 449 kts | 33° |
| 2026-05-04 13:50 | 43.37548 | 14.60003 | 34101 ft | 449 kts | 33° |
| 2026-05-04 13:50 | 43.42575 | 14.65024 | 34100 ft | 449 kts | 33° |
| 2026-05-04 13:51 | 43.47625 | 14.70101 | 34106 ft | 449 kts | 33° |
| 2026-05-04 13:51 | 43.52682 | 14.75201 | 34101 ft | 450 kts | 33° |
| 2026-05-04 13:52 | 43.60279 | 14.82803 | 34107 ft | 449 kts | 33° |
| 2026-05-04 13:53 | 43.65337 | 14.87887 | 34106 ft | 450 kts | 34° |
| 2026-05-04 13:53 | 43.70359 | 14.92971 | 34111 ft | 449 kts | 34° |
| 2026-05-04 13:54 | 43.77825 | 15.00547 | 34109 ft | 443 kts | 34° |
| 2026-05-04 13:55 | 43.85278 | 15.08127 | 34115 ft | 443 kts | 34° |
| 2026-05-04 13:55 | 43.92694 | 15.15699 | 34127 ft | 442 kts | 33° |
| 2026-05-04 13:56 | 43.97996 | 15.19989 | 34141 ft | 440 kts | 26° |
| 2026-05-04 13:57 | 44.06064 | 15.25986 | 34141 ft | 438 kts | 26° |
| 2026-05-04 13:58 | 44.16794 | 15.34036 | 34149 ft | 436 kts | 26° |
| 2026-05-04 13:58 | 44.23891 | 15.39359 | 34141 ft | 435 kts | 26° |
| 2026-05-04 13:59 | 44.29218 | 15.43370 | 34133 ft | 435 kts | 26° |
| 2026-05-04 14:00 | 44.37200 | 15.49412 | 34115 ft | 435 kts | 26° |
| 2026-05-04 14:00 | 44.45175 | 15.55455 | 34114 ft | 435 kts | 25° |
| 2026-05-04 14:01 | 44.50481 | 15.59485 | 34113 ft | 433 kts | 25° |
| 2026-05-04 14:02 | 44.58387 | 15.65508 | 34095 ft | 433 kts | 25° |
| 2026-05-04 14:02 | 44.63675 | 15.69592 | 34084 ft | 433 kts | 26° |
| 2026-05-04 14:03 | 44.68959 | 15.73656 | 34085 ft | 432 kts | 25° |
| 2026-05-04 14:03 | 44.74233 | 15.77708 | 34078 ft | 431 kts | 25° |
| 2026-05-04 14:04 | 44.82131 | 15.83786 | 34069 ft | 431 kts | 25° |
| 2026-05-04 14:04 | 44.87399 | 15.87851 | 34056 ft | 431 kts | 25° |
| 2026-05-04 14:05 | 44.95290 | 15.93956 | 34044 ft | 431 kts | 25° |
| 2026-05-04 14:06 | 45.00534 | 15.97971 | 34036 ft | 431 kts | 25° |
| 2026-05-04 14:06 | 45.05788 | 16.02082 | 34042 ft | 432 kts | 26° |
| 2026-05-04 14:07 | 45.11060 | 16.06199 | 34036 ft | 433 kts | 26° |
| 2026-05-04 14:07 | 45.16334 | 16.10304 | 34032 ft | 433 kts | 26° |
| 2026-05-04 14:08 | 45.21610 | 16.14430 | 34035 ft | 433 kts | 26° |
| 2026-05-04 14:08 | 45.26890 | 16.18569 | 34035 ft | 433 kts | 26° |
| 2026-05-04 14:09 | 45.34794 | 16.24769 | 34023 ft | 433 kts | 26° |
| 2026-05-04 14:10 | 45.42710 | 16.30997 | 34039 ft | 433 kts | 26° |
| 2026-05-04 14:10 | 45.47955 | 16.35140 | 34032 ft | 433 kts | 26° |
| 2026-05-04 14:11 | 45.52970 | 16.39917 | 34025 ft | 437 kts | 41° |
| 2026-05-04 14:11 | 45.59404 | 16.49125 | 34033 ft | 438 kts | 43° |
| 2026-05-04 14:12 | 45.63712 | 16.55297 | 34040 ft | 438 kts | 42° |
| 2026-05-04 14:13 | 45.70177 | 16.64562 | 34040 ft | 438 kts | 42° |
| 2026-05-04 14:13 | 45.74491 | 16.70749 | 34062 ft | 437 kts | 42° |
| 2026-05-04 14:14 | 45.78743 | 16.76876 | 34051 ft | 433 kts | 42° |
| 2026-05-04 14:14 | 45.85090 | 16.86041 | 34051 ft | 433 kts | 42° |
| 2026-05-04 14:15 | 45.93583 | 16.98347 | 34051 ft | 433 kts | 43° |
| 2026-05-04 14:16 | 45.99947 | 17.07607 | 34046 ft | 434 kts | 43° |
| 2026-05-04 14:17 | 46.06269 | 17.16845 | 34050 ft | 434 kts | 43° |
| 2026-05-04 14:18 | 46.12617 | 17.26149 | 34052 ft | 434 kts | 43° |
| 2026-05-04 14:19 | 46.21093 | 17.38610 | 34059 ft | 434 kts | 43° |
| 2026-05-04 14:19 | 46.25308 | 17.44834 | 34066 ft | 430 kts | 43° |
| 2026-05-04 14:20 | 46.29442 | 17.50956 | 34049 ft | 425 kts | 43° |
| 2026-05-04 14:20 | 46.33584 | 17.57099 | 34061 ft | 431 kts | 43° |
| 2026-05-04 14:21 | 46.39872 | 17.66445 | 34062 ft | 432 kts | 43° |
| 2026-05-04 14:21 | 46.44062 | 17.72708 | 34057 ft | 432 kts | 43° |
| 2026-05-04 14:22 | 46.48245 | 17.78956 | 34018 ft | 425 kts | 44° |
| 2026-05-04 14:22 | 46.50274 | 17.82000 | 33742 ft | 414 kts | 43° |
| 2026-05-04 14:22 | 46.52263 | 17.84982 | 33209 ft | 409 kts | 43° |
| 2026-05-04 14:23 | 46.56160 | 17.90835 | 32052 ft | 402 kts | 43° |
| 2026-05-04 14:23 | 46.58100 | 17.93750 | 31474 ft | 399 kts | 43° |
| 2026-05-04 14:23 | 46.60026 | 17.96653 | 30932 ft | 396 kts | 44° |
| 2026-05-04 14:24 | 46.61933 | 17.99530 | 30383 ft | 394 kts | 44° |
| 2026-05-04 14:24 | 46.63828 | 18.02389 | 29810 ft | 391 kts | 44° |
| 2026-05-04 14:24 | 46.65706 | 18.05230 | 29203 ft | 388 kts | 44° |
| 2026-05-04 14:24 | 46.67566 | 18.08046 | 28625 ft | 385 kts | 44° |
| 2026-05-04 14:25 | 46.69416 | 18.10851 | 28062 ft | 382 kts | 44° |
| 2026-05-04 14:25 | 46.73067 | 18.16394 | 26983 ft | 376 kts | 44° |
| 2026-05-04 14:25 | 46.74869 | 18.19130 | 26481 ft | 372 kts | 44° |
| 2026-05-04 14:26 | 46.76653 | 18.21841 | 25974 ft | 369 kts | 44° |
| 2026-05-04 14:26 | 46.78425 | 18.24540 | 25465 ft | 367 kts | 44° |
| 2026-05-04 14:26 | 46.80167 | 18.27194 | 24968 ft | 365 kts | 45° |
| 2026-05-04 14:26 | 46.81921 | 18.29865 | 24473 ft | 363 kts | 44° |
| 2026-05-04 14:27 | 46.83663 | 18.32522 | 23988 ft | 361 kts | 45° |
| 2026-05-04 14:27 | 46.85396 | 18.35171 | 23490 ft | 360 kts | 45° |
| 2026-05-04 14:27 | 46.87119 | 18.37806 | 22927 ft | 357 kts | 45° |
| 2026-05-04 14:27 | 46.88832 | 18.40429 | 22423 ft | 354 kts | 45° |
| 2026-05-04 14:28 | 46.90524 | 18.43026 | 21918 ft | 351 kts | 45° |
| 2026-05-04 14:28 | 46.92202 | 18.45604 | 21426 ft | 349 kts | 45° |
| 2026-05-04 14:28 | 46.93869 | 18.48168 | 20947 ft | 346 kts | 45° |
| 2026-05-04 14:28 | 46.95554 | 18.50654 | 20451 ft | 343 kts | 43° |
| 2026-05-04 14:29 | 46.98965 | 18.55507 | 20040 ft | 341 kts | 44° |
| 2026-05-04 14:29 | 47.02336 | 18.60361 | 20059 ft | 341 kts | 44° |
| 2026-05-04 14:30 | 47.04032 | 18.62812 | 20065 ft | 342 kts | 44° |
| 2026-05-04 14:30 | 47.05726 | 18.65263 | 19651 ft | 343 kts | 44° |
| 2026-05-04 14:30 | 47.09210 | 18.70305 | 18131 ft | 356 kts | 44° |
| 2026-05-04 14:31 | 47.10964 | 18.72845 | 17625 ft | 352 kts | 44° |
| 2026-05-04 14:31 | 47.14443 | 18.77892 | 16420 ft | 349 kts | 45° |
| 2026-05-04 14:32 | 47.17866 | 18.82867 | 15136 ft | 344 kts | 45° |
| 2026-05-04 14:32 | 47.19559 | 18.85331 | 14572 ft | 340 kts | 45° |
| 2026-05-04 14:32 | 47.21214 | 18.87743 | 13948 ft | 339 kts | 45° |
| 2026-05-04 14:32 | 47.22887 | 18.90179 | 13301 ft | 337 kts | 45° |
| 2026-05-04 14:33 | 47.24537 | 18.92588 | 12596 ft | 332 kts | 45° |
| 2026-05-04 14:33 | 47.26175 | 18.94985 | 11945 ft | 330 kts | 46° |
| 2026-05-04 14:33 | 47.27784 | 18.97344 | 11566 ft | 321 kts | 46° |
| 2026-05-04 14:33 | 47.29338 | 18.99616 | 11255 ft | 310 kts | 46° |
| 2026-05-04 14:34 | 47.30865 | 19.01817 | 10806 ft | 306 kts | 44° |
| 2026-05-04 14:34 | 47.32425 | 19.03928 | 10357 ft | 302 kts | 43° |
| 2026-05-04 14:34 | 47.33974 | 19.05996 | 9854 ft | 300 kts | 43° |
| 2026-05-04 14:34 | 47.35520 | 19.08065 | 9359 ft | 297 kts | 43° |
| 2026-05-04 14:35 | 47.37080 | 19.09984 | 9114 ft | 287 kts | 32° |
| 2026-05-04 14:35 | 47.38925 | 19.10886 | 8843 ft | 277 kts | 1° |
| 2026-05-04 14:35 | 47.40760 | 19.10324 | 8424 ft | 270 kts | 329° |
| 2026-05-04 14:35 | 47.42188 | 19.08594 | 8027 ft | 263 kts | 309° |
| 2026-05-04 14:36 | 47.43375 | 19.06560 | 7676 ft | 260 kts | 307° |
| 2026-05-04 14:36 | 47.44535 | 19.04550 | 7428 ft | 253 kts | 307° |
| 2026-05-04 14:36 | 47.45684 | 19.02602 | 7095 ft | 251 kts | 308° |
| 2026-05-04 14:36 | 47.46842 | 19.00672 | 6726 ft | 249 kts | 309° |
| 2026-05-04 14:37 | 47.47994 | 18.98769 | 6351 ft | 247 kts | 309° |
| 2026-05-04 14:37 | 47.49135 | 18.96894 | 5972 ft | 243 kts | 308° |
| 2026-05-04 14:37 | 47.50262 | 18.95048 | 5585 ft | 240 kts | 307° |
| 2026-05-04 14:37 | 47.51369 | 18.93234 | 5203 ft | 236 kts | 309° |
| 2026-05-04 14:38 | 47.52572 | 18.91617 | 4829 ft | 239 kts | 329° |
| 2026-05-04 14:38 | 47.54162 | 18.90957 | 4449 ft | 240 kts | 0° |
| 2026-05-04 14:38 | 47.55763 | 18.91507 | 4061 ft | 236 kts | 31° |
| 2026-05-04 14:38 | 47.57053 | 18.92951 | 3734 ft | 232 kts | 44° |
| 2026-05-04 14:39 | 47.58038 | 18.94788 | 3531 ft | 225 kts | 71° |
| 2026-05-04 14:39 | 47.58301 | 18.97004 | 3452 ft | 219 kts | 94° |
| 2026-05-04 14:39 | 47.58253 | 18.99255 | 3452 ft | 214 kts | 108° |
| 2026-05-04 14:40 | 47.56762 | 19.02878 | 3474 ft | 204 kts | 139° |
| 2026-05-04 14:40 | 47.55843 | 19.04302 | 3503 ft | 180 kts | 137° |
| 2026-05-04 14:40 | 47.55025 | 19.05616 | 3364 ft | 168 kts | 137° |
| 2026-05-04 14:40 | 47.54230 | 19.06903 | 3172 ft | 170 kts | 137° |
| 2026-05-04 14:41 | 47.53438 | 19.08189 | 2949 ft | 167 kts | 138° |
| 2026-05-04 14:41 | 47.52653 | 19.09462 | 2738 ft | 168 kts | 138° |
| 2026-05-04 14:41 | 47.51107 | 19.11972 | 2318 ft | 159 kts | 138° |
| 2026-05-04 14:42 | 47.49662 | 19.14330 | 1860 ft | 153 kts | 136° |
| 2026-05-04 14:42 | 47.48957 | 19.15499 | 1684 ft | 152 kts | 137° |
| 2026-05-04 14:42 | 47.48228 | 19.16633 | 1445 ft | 153 kts | 138° |
| 2026-05-04 14:43 | 47.47740 | 19.17378 | 1309 ft | 152 kts | 137° |
| 2026-05-04 14:43 | 47.47012 | 19.18553 | 1044 ft | 159 kts | 133° |
| 2026-05-04 14:43 | 47.46304 | 19.19799 | 892 ft | 153 kts | 131° |
| 2026-05-04 14:43 | 47.45595 | 19.20948 | 726 ft | 152 kts | 135° |
| 2026-05-04 14:44 | 47.44878 | 19.22080 | 500 ft | 147 kts | 134° |
| 2026-05-04 14:44 | 47.44230 | 19.23122 | 459 ft | 120 kts | 132° |
| 2026-05-04 14:44 | 47.43803 | 19.23804 | 460 ft | 61 kts | 133° |
| 2026-05-04 14:44 | 47.43621 | 19.24099 | 458 ft | 36 kts | 132° |
| 2026-05-04 14:45 | 47.43457 | 19.24367 | 457 ft | 35 kts | 131° |
| 2026-05-04 14:45 | 47.43298 | 19.24626 | 459 ft | 33 kts | 133° |
| 2026-05-04 14:45 | 47.43198 | 19.24785 | 461 ft | 19 kts | 133° |
| 2026-05-04 14:45 | 47.43103 | 19.24936 | 463 ft | 14 kts | 130° |
| 2026-05-04 14:46 | 47.43092 | 19.25049 | 462 ft | 13 kts | 56° |
| 2026-05-04 14:46 | 47.43164 | 19.25144 | 461 ft | 15 kts | 41° |
| 2026-05-04 14:46 | 47.43222 | 19.25223 | 463 ft | 0 kts | 45° |
| 2026-05-04 14:46 | 47.43230 | 19.25235 | 461 ft | 3 kts | 45° |
| 2026-05-04 14:47 | 47.43251 | 19.25266 | 463 ft | 5 kts | 45° |
| 2026-05-04 14:47 | 47.43281 | 19.25310 | 463 ft | 7 kts | 45° |
| 2026-05-04 14:47 | 47.43322 | 19.25367 | 463 ft | 9 kts | 33° |
| 2026-05-04 14:47 | 47.43380 | 19.25435 | 463 ft | 12 kts | 41° |
| 2026-05-04 14:48 | 47.43446 | 19.25522 | 461 ft | 14 kts | 41° |
| 2026-05-04 14:48 | 47.43508 | 19.25608 | 463 ft | 5 kts | 43° |
| 2026-05-04 14:48 | 47.43534 | 19.25643 | 461 ft | 6 kts | 42° |
| 2026-05-04 14:48 | 47.43548 | 19.25698 | 463 ft | 7 kts | 106° |
| 2026-05-04 14:49 | 47.43517 | 19.25755 | 462 ft | 8 kts | 133° |
| 2026-05-04 14:49 | 47.43485 | 19.25820 | 463 ft | 9 kts | 115° |
| 2026-05-04 14:49 | 47.43469 | 19.25860 | 460 ft | 0 kts | 132° |
| 2026-05-04 14:50 | 47.43468 | 19.25862 | 460 ft | 1 kts | 133° |
| 2026-05-04 14:50 | 47.43450 | 19.25885 | 463 ft | 5 kts | 158° |
| 2026-05-04 14:50 | 47.43426 | 19.25851 | 461 ft | 6 kts | 239° |
| 2026-05-04 14:51 | 47.43400 | 19.25810 | 463 ft | 4 kts | 223° |
| 2026-05-04 14:51 | 47.43393 | 19.25800 | 463 ft | 0 kts | 223° |